createdAt,value
2023-02-14T00:00:27.367Z,7.43
2023-02-14T00:03:29.516Z,6.33
2023-02-14T00:06:35.508Z,6.53
2023-02-14T00:09:38.045Z,4.97
2023-02-14T00:12:44.077Z,6.33
2023-02-14T00:15:46.745Z,5.13
2023-02-14T00:19:07.662Z,6.97
2023-02-14T00:22:13.500Z,6.30
2023-02-14T00:25:19.881Z,7.33
2023-02-14T00:28:21.990Z,5.23
2023-02-14T00:31:25.553Z,11.63
2023-02-14T00:34:28.283Z,5.70
2023-02-14T00:37:30.464Z,5.80
2023-02-14T00:40:32.549Z,6.00
2023-02-14T00:43:34.577Z,6.10
2023-02-14T00:46:37.019Z,6.47
2023-02-14T00:49:39.968Z,6.70
2023-02-14T00:52:41.999Z,5.20
2023-02-14T00:55:46.563Z,6.07
2023-02-14T00:58:49.348Z,5.95
2023-02-14T01:01:51.465Z,5.07
2023-02-14T01:05:03.395Z,5.13
2023-02-14T01:08:07.260Z,5.17
2023-02-14T01:11:13.541Z,6.37
2023-02-14T01:14:15.974Z,5.27
2023-02-14T01:17:18.115Z,6.10
2023-02-14T01:20:20.248Z,4.90
2023-02-14T01:23:22.349Z,6.23
2023-02-14T01:26:25.550Z,5.53
2023-02-14T01:29:28.515Z,5.20
2023-02-14T01:32:34.000Z,5.20
2023-02-14T01:35:38.873Z,6.93
2023-02-14T01:38:41.401Z,5.23
2023-02-14T01:41:45.570Z,5.87
2023-02-14T01:44:50.422Z,4.90
2023-02-14T01:47:56.736Z,5.77
2023-02-14T01:50:59.089Z,5.97
2023-02-14T01:54:02.545Z,5.33
2023-02-14T01:57:09.709Z,5.27
2023-02-14T02:00:30.640Z,5.40
2023-02-14T02:03:45.814Z,5.57
2023-02-14T02:06:54.739Z,5.60
2023-02-14T02:10:03.613Z,6.13
2023-02-14T02:13:14.879Z,5.40
2023-02-14T02:16:28.486Z,5.67
2023-02-14T02:20:04.368Z,6.90
2023-02-14T02:23:28.067Z,6.00
2023-02-14T02:27:04.346Z,5.43
2023-02-14T02:30:09.570Z,4.73
2023-02-14T02:33:15.585Z,7.90
2023-02-14T02:36:37.128Z,5.53
2023-02-14T02:40:14.952Z,5.67
2023-02-14T02:43:45.220Z,6.17
2023-02-14T02:47:00.496Z,5.50
2023-02-14T02:53:42.104Z,6.23
2023-02-14T02:56:51.334Z,6.78
2023-02-14T02:59:58.025Z,7.20
2023-02-14T03:03:18.460Z,6.07
2023-02-14T03:06:20.736Z,4.13
2023-02-14T03:09:28.810Z,5.50
2023-02-14T03:12:33.670Z,4.77
2023-02-14T03:19:14.973Z,7.00
2023-02-14T03:23:01.307Z,6.70
2023-02-14T03:26:06.427Z,6.77
2023-02-14T03:29:51.681Z,5.90
2023-02-14T03:33:05.921Z,4.85
2023-02-14T03:36:43.872Z,6.10
2023-02-14T03:39:55.702Z,7.93
2023-02-14T03:43:04.559Z,5.47
2023-02-14T03:46:15.045Z,6.53
2023-02-14T03:49:22.128Z,7.00
2023-02-14T03:52:27.199Z,5.53
2023-02-14T03:55:41.931Z,5.13
2023-02-14T03:58:51.901Z,7.40
2023-02-14T04:02:01.625Z,6.77
2023-02-14T04:05:10.214Z,5.90
2023-02-14T04:08:25.438Z,6.53
2023-02-14T04:11:28.318Z,6.67
2023-02-14T04:14:31.322Z,7.50
2023-02-14T04:17:51.957Z,6.80
2023-02-14T04:20:53.999Z,7.23
2023-02-14T04:23:56.139Z,7.70
2023-02-14T04:27:10.632Z,7.23
2023-02-14T04:30:15.052Z,7.47
2023-02-14T04:33:17.321Z,7.30
2023-02-14T04:36:19.371Z,7.00
2023-02-14T04:39:21.362Z,6.33
2023-02-14T04:42:24.192Z,6.00
2023-02-14T04:45:26.222Z,5.63
2023-02-14T04:48:28.304Z,6.90
2023-02-14T04:51:30.380Z,6.47
2023-02-14T04:54:32.788Z,6.93
2023-02-14T04:57:35.093Z,6.90
2023-02-14T05:00:37.261Z,7.23
2023-02-14T05:03:39.438Z,6.10
2023-02-14T05:06:41.455Z,6.97
2023-02-14T05:09:43.487Z,7.67
2023-02-14T05:12:45.617Z,6.27
2023-02-14T05:16:08.775Z,6.53
2023-02-14T05:19:11.252Z,9.17
2023-02-14T05:22:13.737Z,6.83
2023-02-14T05:25:25.934Z,6.40
2023-02-14T05:28:28.008Z,6.83
2023-02-14T05:31:30.175Z,7.63
2023-02-14T05:34:32.243Z,7.37
2023-02-14T05:37:34.240Z,7.30
2023-02-14T05:40:36.624Z,6.27
2023-02-14T05:43:39.029Z,7.63
2023-02-14T05:46:41.060Z,6.60
2023-02-14T05:49:43.094Z,7.50
2023-02-14T05:52:45.421Z,6.53
2023-02-14T05:55:47.718Z,7.30
2023-02-14T05:58:50.089Z,5.73
2023-02-14T06:01:52.947Z,7.40
2023-02-14T06:04:56.000Z,6.20
2023-02-14T06:07:58.140Z,7.03
2023-02-14T06:11:00.340Z,7.10
2023-02-14T06:14:02.617Z,7.63
2023-02-14T06:17:04.694Z,6.97
2023-02-14T06:20:09.636Z,6.87
2023-02-14T06:26:13.965Z,7.87
2023-02-14T06:29:17.623Z,6.50
2023-02-14T06:32:19.752Z,6.47
2023-02-14T06:35:22.075Z,6.00
2023-02-14T06:38:25.134Z,6.10
2023-02-14T06:41:28.212Z,7.90
2023-02-14T06:44:30.239Z,6.07
2023-02-14T06:47:35.148Z,7.10
2023-02-14T06:50:37.359Z,8.70
2023-02-14T06:53:39.770Z,7.10
2023-02-14T06:56:41.830Z,6.27
2023-02-14T06:59:44.062Z,6.43
2023-02-14T07:02:46.663Z,7.37
2023-02-14T07:05:48.847Z,9.60
2023-02-14T07:08:50.989Z,7.57
2023-02-14T07:11:52.970Z,8.47
2023-02-14T07:14:54.995Z,6.03
2023-02-14T07:17:57.291Z,7.47
2023-02-14T07:20:59.632Z,6.23
2023-02-14T07:24:01.783Z,6.30
2023-02-14T07:27:03.898Z,9.13
2023-02-14T07:30:08.131Z,7.17
2023-02-14T07:33:10.340Z,6.23
2023-02-14T07:36:12.648Z,6.23
2023-02-14T07:39:14.810Z,8.07
2023-02-14T07:42:17.195Z,6.53
2023-02-14T07:45:22.041Z,8.07
2023-02-14T07:48:25.341Z,6.37
2023-02-14T07:51:27.529Z,6.90
2023-02-14T07:54:29.782Z,7.43
2023-02-14T07:57:32.059Z,6.87
2023-02-14T08:00:34.270Z,7.07
2023-02-14T08:03:36.458Z,7.97
2023-02-14T08:06:38.496Z,8.00
2023-02-14T08:09:41.526Z,7.40
2023-02-14T08:12:58.997Z,8.27
2023-02-14T08:16:09.753Z,10.97
2023-02-14T08:19:12.055Z,6.23
2023-02-14T08:22:14.167Z,6.67
2023-02-14T08:25:16.266Z,7.50
2023-02-14T08:28:23.171Z,5.30
2023-02-14T08:31:35.616Z,5.40
2023-02-14T08:34:37.869Z,6.47
2023-02-14T08:37:39.845Z,6.17
2023-02-14T08:40:50.553Z,6.50
2023-02-14T08:43:52.754Z,7.17
2023-02-14T08:46:54.828Z,5.83
2023-02-14T08:49:56.846Z,6.60
2023-02-14T08:52:59.357Z,5.50
2023-02-14T08:56:06.066Z,6.80
2023-02-14T08:59:08.484Z,7.53
2023-02-14T09:02:13.930Z,6.87
2023-02-14T09:05:16.086Z,7.10
2023-02-14T09:08:18.174Z,6.47
2023-02-14T09:11:25.430Z,5.97
2023-02-14T09:14:27.449Z,8.60
2023-02-14T09:17:30.776Z,8.37
2023-02-14T09:20:32.841Z,7.27
2023-02-14T09:23:35.074Z,6.67
2023-02-14T09:26:40.931Z,8.50
2023-02-14T09:29:43.274Z,5.30
2023-02-14T09:32:45.325Z,5.70
2023-02-14T09:35:47.406Z,5.87
2023-02-14T09:38:49.598Z,5.43
2023-02-14T09:42:06.423Z,6.03
2023-02-14T09:45:21.266Z,5.60
2023-02-14T09:48:36.732Z,6.03
2023-02-14T09:51:43.742Z,6.75
2023-02-14T09:54:51.445Z,5.68
2023-02-14T09:58:03.236Z,6.97
2023-02-14T10:01:10.449Z,5.97
2023-02-14T10:04:39.843Z,4.82
2023-02-14T10:08:12.879Z,5.35
2023-02-14T10:11:20.802Z,6.15
2023-02-14T10:14:29.795Z,6.45
2023-02-14T10:17:47.171Z,7.15
2023-02-14T10:20:56.574Z,5.80
2023-02-14T10:24:05.721Z,6.78
2023-02-14T10:27:26.397Z,7.93
2023-02-14T10:30:37.876Z,5.75
2023-02-14T10:33:44.275Z,6.90
2023-02-14T10:36:51.789Z,7.22
2023-02-14T10:40:09.233Z,7.38
2023-02-14T10:43:11.365Z,6.47
2023-02-14T10:46:38.927Z,7.25
2023-02-14T10:50:06.639Z,6.45
2023-02-14T10:53:17.539Z,8.30
2023-02-14T10:56:27.575Z,8.73
2023-02-14T10:59:39.576Z,8.82
2023-02-14T11:02:45.215Z,8.33
2023-02-14T11:05:49.101Z,6.80
2023-02-14T11:08:52.162Z,6.82
2023-02-14T11:11:57.145Z,6.00
2023-02-14T11:15:24.241Z,7.87
2023-02-14T11:18:32.914Z,7.23
2023-02-14T11:21:44.100Z,7.20
2023-02-14T11:24:48.493Z,8.55
2023-02-14T11:27:58.475Z,5.88
2023-02-14T11:31:00.969Z,6.72
2023-02-14T11:34:23.290Z,6.57
2023-02-14T11:37:28.853Z,8.68
2023-02-14T11:40:37.379Z,7.90
2023-02-14T11:43:42.674Z,8.95
2023-02-14T11:46:53.067Z,6.07
2023-02-14T11:50:01.393Z,6.75
2023-02-14T11:53:03.844Z,6.67
2023-02-14T11:56:06.495Z,6.30
2023-02-14T11:59:08.523Z,7.70
2023-02-14T12:02:36.771Z,6.47
2023-02-14T12:05:50.233Z,7.07
2023-02-14T12:08:52.322Z,7.07
2023-02-14T12:12:18.949Z,7.28
2023-02-14T12:15:40.557Z,6.95
2023-02-14T12:19:02.837Z,7.60
2023-02-14T12:22:06.512Z,8.65
2023-02-14T12:25:21.530Z,8.32
2023-02-14T12:28:38.670Z,7.80
2023-02-14T12:34:43.533Z,6.78
2023-02-14T12:38:09.515Z,8.27
2023-02-14T12:41:20.207Z,7.32
2023-02-14T12:44:39.696Z,8.40
2023-02-14T12:48:34.812Z,7.60
2023-02-14T12:51:39.587Z,5.60
2023-02-14T12:55:23.529Z,6.18
2023-02-14T12:58:40.923Z,5.43
2023-02-14T13:02:03.750Z,7.18
2023-02-14T13:05:38.893Z,5.80
2023-02-14T13:09:01.547Z,5.15
2023-02-14T13:12:34.137Z,6.77
2023-02-14T13:15:56.208Z,6.60
2023-02-14T13:19:16.495Z,7.72
2023-02-14T13:22:21.880Z,7.05
2023-02-14T13:25:31.846Z,6.85
2023-02-14T13:28:36.398Z,5.97
2023-02-14T13:34:48.551Z,6.25
2023-02-14T13:37:58.916Z,6.55
2023-02-14T13:41:02.899Z,7.20
2023-02-14T13:44:05.536Z,5.28
2023-02-14T13:47:16.132Z,6.32
2023-02-14T13:50:21.758Z,5.33
2023-02-14T13:53:46.663Z,5.83
2023-02-14T13:56:49.343Z,4.57
2023-02-14T14:00:16.578Z,6.63
2023-02-14T14:03:27.800Z,4.57
2023-02-14T14:06:31.571Z,6.15
2023-02-14T14:09:42.679Z,7.07
2023-02-14T14:12:45.058Z,5.20
2023-02-14T14:16:24.145Z,5.60
2023-02-14T14:19:27.662Z,4.85
2023-02-14T14:22:29.867Z,6.27
2023-02-14T14:25:42.905Z,7.32
2023-02-14T14:28:46.591Z,5.50
2023-02-14T14:31:55.549Z,6.20
2023-02-14T14:35:08.371Z,5.60
2023-02-14T14:38:14.386Z,6.20
2023-02-14T14:41:17.130Z,6.57
2023-02-14T14:44:19.492Z,7.05
2023-02-14T14:47:25.705Z,6.40
2023-02-14T14:50:33.844Z,6.93
2023-02-14T14:53:47.373Z,7.63
2023-02-14T14:57:01.790Z,7.22
2023-02-14T15:00:34.705Z,5.72
2023-02-14T15:03:37.102Z,5.70
2023-02-14T15:06:39.391Z,5.85
2023-02-14T15:09:43.256Z,6.57
2023-02-14T15:13:04.251Z,6.07
2023-02-14T15:16:08.417Z,5.88
2023-02-14T15:19:18.192Z,7.38
2023-02-14T15:22:22.083Z,6.80
2023-02-14T15:25:32.071Z,6.60
2023-02-14T15:28:35.900Z,6.88
2023-02-14T15:31:41.255Z,5.40
2023-02-14T15:34:43.739Z,6.22
2023-02-14T15:37:46.930Z,5.88
2023-02-14T15:40:49.934Z,5.75
2023-02-14T15:43:57.063Z,5.87
2023-02-14T15:47:05.777Z,6.05
2023-02-14T15:50:16.975Z,5.53
2023-02-14T15:53:32.874Z,6.70
2023-02-14T15:56:44.860Z,6.30
2023-02-14T15:59:47.502Z,5.78
2023-02-14T16:03:06.494Z,7.15
2023-02-14T16:06:29.415Z,7.53
2023-02-14T16:09:36.564Z,7.73
2023-02-14T16:12:40.647Z,6.15
2023-02-14T16:15:59.647Z,5.82
2023-02-14T16:19:03.585Z,5.53
2023-02-14T16:22:08.475Z,6.07
2023-02-14T16:25:10.456Z,7.57
2023-02-14T16:28:13.300Z,8.17
2023-02-14T16:34:19.567Z,8.37
2023-02-14T16:37:28.182Z,7.90
2023-02-14T16:40:30.446Z,6.20
2023-02-14T16:43:32.514Z,5.90
2023-02-14T16:46:35.973Z,7.60
2023-02-14T16:49:38.258Z,8.40
2023-02-14T16:52:41.800Z,7.50
2023-02-14T16:55:44.469Z,6.25
2023-02-14T16:58:47.172Z,6.30
2023-02-14T17:01:49.582Z,6.65
2023-02-14T17:04:51.657Z,7.40
2023-02-14T17:07:53.659Z,6.90
2023-02-14T17:10:57.416Z,7.27
2023-02-14T17:13:59.913Z,7.13
2023-02-14T17:17:02.161Z,7.55
2023-02-14T17:20:08.247Z,6.50
2023-02-14T17:23:10.457Z,6.07
2023-02-14T17:26:12.589Z,6.60
2023-02-14T17:29:14.632Z,7.67
2023-02-14T17:32:16.751Z,7.03
2023-02-14T17:35:19.254Z,7.37
2023-02-14T17:38:22.325Z,7.50
2023-02-14T17:41:26.447Z,9.37
2023-02-14T17:44:32.505Z,6.25
2023-02-14T17:47:35.177Z,8.20
2023-02-14T17:50:37.210Z,8.40
2023-02-14T17:53:41.865Z,9.20
2023-02-14T17:56:44.154Z,7.63
2023-02-14T17:59:47.005Z,8.37
2023-02-14T18:02:49.439Z,8.30
2023-02-14T18:05:51.551Z,7.27
2023-02-14T18:08:56.935Z,9.20
2023-02-14T18:11:59.155Z,7.80
2023-02-14T18:15:01.383Z,8.50
2023-02-14T18:18:03.757Z,8.47
2023-02-14T18:21:09.093Z,9.27
2023-02-14T18:24:12.716Z,7.83
2023-02-14T18:27:16.024Z,8.20
2023-02-14T18:30:18.406Z,9.13
2023-02-14T18:33:21.407Z,7.77
2023-02-14T18:36:24.368Z,7.93
2023-02-14T18:39:26.928Z,8.87
2023-02-14T18:42:28.961Z,9.43
2023-02-14T18:45:31.163Z,8.00
2023-02-14T18:48:34.017Z,8.23
2023-02-14T18:51:39.496Z,9.63
2023-02-14T18:54:42.870Z,10.00
2023-02-14T18:57:45.005Z,8.87
2023-02-14T19:00:47.158Z,10.30
2023-02-14T19:03:50.810Z,9.17
2023-02-14T19:06:52.887Z,10.60
2023-02-14T19:09:54.923Z,9.63
2023-02-14T19:12:56.963Z,10.87
2023-02-14T19:15:59.704Z,9.67
2023-02-14T19:19:02.897Z,8.43
2023-02-14T19:22:05.404Z,9.20
2023-02-14T19:25:09.704Z,9.43
2023-02-14T19:28:11.717Z,10.20
2023-02-14T19:31:14.114Z,10.97
2023-02-14T19:34:19.702Z,12.80
2023-02-14T19:37:21.685Z,11.60
2023-02-14T19:40:23.809Z,12.57
2023-02-14T19:43:25.893Z,10.83
2023-02-14T19:46:29.981Z,11.27
2023-02-14T19:49:32.081Z,10.83
2023-02-14T19:52:34.331Z,10.73
2023-02-14T19:55:36.385Z,9.67
2023-02-14T19:58:39.184Z,11.03
2023-02-14T20:01:46.775Z,9.80
2023-02-14T20:04:49.181Z,9.87
2023-02-14T20:07:54.444Z,11.10
2023-02-14T20:10:56.545Z,11.17
2023-02-14T20:14:00.201Z,9.97
2023-02-14T20:17:04.135Z,11.20
2023-02-14T20:20:08.497Z,10.53
2023-02-14T20:23:11.582Z,10.10
2023-02-14T20:26:15.208Z,9.70
2023-02-14T20:29:18.170Z,13.40
2023-02-14T20:32:20.141Z,13.37
2023-02-14T20:35:22.191Z,10.77
2023-02-14T20:38:24.275Z,11.80
2023-02-14T20:41:28.201Z,10.30
2023-02-14T20:44:31.332Z,9.73
2023-02-14T20:47:34.351Z,11.90
2023-02-14T20:50:36.332Z,11.47
2023-02-14T20:53:39.249Z,9.97
2023-02-14T20:56:41.877Z,10.33
2023-02-14T20:59:45.406Z,9.97
2023-02-14T21:02:47.708Z,11.93
2023-02-14T21:05:49.904Z,10.50
2023-02-14T21:08:53.478Z,10.83
2023-02-14T21:11:55.639Z,11.07
2023-02-14T21:14:57.859Z,12.33
2023-02-14T21:17:59.889Z,11.50
2023-02-14T21:21:12.405Z,13.27
2023-02-14T21:24:15.799Z,9.77
2023-02-14T21:27:17.804Z,10.30
2023-02-14T21:30:20.121Z,11.20
2023-02-14T21:33:22.212Z,12.73
2023-02-14T21:36:26.680Z,12.87
2023-02-14T21:39:31.069Z,12.57
2023-02-14T21:42:33.188Z,13.48
2023-02-14T21:45:53.367Z,12.20
2023-02-14T21:49:14.382Z,15.23
2023-02-14T21:52:17.423Z,11.10
2023-02-14T21:55:19.592Z,13.13
2023-02-14T21:58:21.641Z,14.50
2023-02-14T22:01:29.783Z,11.03
2023-02-14T22:04:33.282Z,14.70
2023-02-14T22:07:35.652Z,12.13
2023-02-14T22:10:40.024Z,10.27
2023-02-14T22:13:42.937Z,10.45
2023-02-14T22:16:45.008Z,10.67
2023-02-14T22:19:47.597Z,8.97
2023-02-14T22:22:49.777Z,10.90
2023-02-14T22:26:09.199Z,11.00
2023-02-14T22:29:13.266Z,11.00
2023-02-14T22:32:15.574Z,10.57
2023-02-14T22:35:17.892Z,9.77
2023-02-14T22:38:19.911Z,9.90
2023-02-14T22:41:24.205Z,10.17
2023-02-14T22:44:26.295Z,11.10
2023-02-14T22:47:28.376Z,10.20
2023-02-14T22:50:30.904Z,11.13
2023-02-14T22:53:33.876Z,10.63
2023-02-14T22:56:40.056Z,9.87
2023-02-14T22:59:42.045Z,12.13
2023-02-14T23:02:44.136Z,10.50
2023-02-14T23:05:48.507Z,11.30
2023-02-14T23:08:51.099Z,11.30
2023-02-14T23:11:53.226Z,11.33
2023-02-14T23:15:14.694Z,8.37
2023-02-14T23:18:49.084Z,10.50
2023-02-14T23:21:57.111Z,11.17
2023-02-14T23:25:01.227Z,10.50
2023-02-14T23:28:04.527Z,10.97
2023-02-14T23:31:06.902Z,13.07
2023-02-14T23:34:09.716Z,10.47
2023-02-14T23:37:13.923Z,12.17
2023-02-14T23:40:16.096Z,11.07
2023-02-14T23:43:18.250Z,10.23
2023-02-14T23:46:20.506Z,12.87
2023-02-14T23:49:23.641Z,10.40
2023-02-14T23:52:25.717Z,11.13
2023-02-14T23:55:27.820Z,12.20
2023-02-14T23:58:30.826Z,11.33
